createdAt,value
2019-05-20T00:01:08.180Z,63.83
2019-05-20T00:03:35.571Z,66.78
2019-05-20T00:06:02.989Z,66.95
2019-05-20T00:08:30.205Z,69.91
2019-05-20T00:10:57.489Z,70.19
2019-05-20T00:13:24.851Z,67.32
2019-05-20T00:15:52.163Z,63.94
2019-05-20T00:18:19.506Z,64.68
2019-05-20T00:20:46.633Z,67.32
2019-05-20T00:23:13.914Z,68.37
2019-05-20T00:25:41.328Z,66.11
2019-05-20T00:28:08.578Z,65.97
2019-05-20T00:30:36.008Z,62.86
2019-05-20T00:33:03.421Z,63.33
2019-05-20T00:35:30.859Z,64.10
2019-05-20T00:38:00.261Z,67.18
2019-05-20T00:40:27.520Z,63.40
2019-05-20T00:42:54.692Z,67.10
2019-05-20T00:45:22.059Z,66.59
2019-05-20T00:47:49.211Z,67.25
2019-05-20T00:50:16.786Z,63.83
2019-05-20T00:52:44.258Z,63.31
2019-05-20T00:55:27.875Z,63.07
2019-05-20T00:57:55.226Z,64.44
2019-05-20T01:00:23.406Z,62.69
2019-05-20T01:02:56.773Z,61.83
2019-05-20T01:05:20.197Z,62.15
2019-05-20T01:07:47.795Z,62.66
2019-05-20T01:10:15.766Z,60.97
2019-05-20T01:12:43.151Z,65.99
2019-05-20T01:15:10.980Z,61.47
2019-05-20T01:17:38.290Z,62.48
2019-05-20T01:20:06.415Z,63.37
2019-05-20T01:22:36.991Z,63.71
2019-05-20T01:25:04.785Z,63.27
2019-05-20T01:27:33.089Z,64.60
2019-05-20T01:30:00.463Z,64.30
2019-05-20T01:32:27.720Z,64.33
2019-05-20T01:34:55.089Z,62.74
2019-05-20T01:37:22.402Z,64.71
2019-05-20T01:39:49.660Z,68.70
2019-05-20T01:42:16.923Z,65.71
2019-05-20T01:44:44.319Z,64.99
2019-05-20T01:47:16.537Z,64.19
2019-05-20T01:49:44.493Z,68.22
2019-05-20T01:52:12.613Z,65.96
2019-05-20T01:54:43.458Z,65.42
2019-05-20T01:57:10.661Z,65.42
2019-05-20T01:59:37.861Z,66.36
2019-05-20T02:02:05.217Z,65.65
2019-05-20T02:04:33.380Z,66.41
2019-05-20T02:07:02.248Z,67.03
2019-05-20T02:09:30.650Z,69.99
2019-05-20T02:11:58.034Z,67.44
2019-05-20T02:14:28.001Z,68.09
2019-05-20T02:16:56.018Z,69.22
2019-05-20T02:19:23.879Z,70.44
2019-05-20T02:21:52.508Z,65.93
2019-05-20T02:24:20.590Z,65.43
2019-05-20T02:26:47.860Z,65.34
2019-05-20T02:29:15.028Z,65.89
2019-05-20T02:31:42.208Z,66.66
2019-05-20T02:34:09.567Z,71.66
2019-05-20T02:36:36.843Z,68.02
2019-05-20T02:39:05.370Z,67.75
2019-05-20T02:41:32.846Z,66.35
2019-05-20T02:44:00.326Z,65.80
2019-05-20T02:46:27.597Z,71.03
2019-05-20T02:48:54.834Z,69.24
2019-05-20T02:51:32.254Z,71.88
2019-05-20T02:54:03.526Z,69.27
2019-05-20T02:56:32.104Z,72.23
2019-05-20T02:59:04.290Z,68.53
2019-05-20T03:01:34.008Z,68.77
2019-05-20T03:04:11.524Z,68.26
2019-05-20T03:06:33.027Z,68.36
2019-05-20T03:09:00.490Z,68.16
2019-05-20T03:11:27.748Z,67.85
2019-05-20T03:13:55.036Z,69.22
2019-05-20T03:16:22.188Z,67.39
2019-05-20T03:18:49.604Z,67.28
2019-05-20T03:21:16.829Z,67.07
2019-05-20T03:23:44.085Z,66.89
2019-05-20T03:26:11.484Z,67.04
2019-05-20T03:28:43.099Z,69.85
2019-05-20T03:31:10.569Z,67.69
2019-05-20T03:33:37.829Z,67.52
2019-05-20T03:36:05.461Z,69.80
2019-05-20T03:38:32.803Z,70.43
2019-05-20T03:41:00.077Z,71.71
2019-05-20T03:43:27.378Z,73.08
2019-05-20T03:45:54.806Z,70.69
2019-05-20T03:48:22.170Z,68.50
2019-05-20T03:50:49.633Z,70.23
2019-05-20T03:53:17.137Z,69.75
2019-05-20T03:55:44.321Z,70.11
2019-05-20T03:58:13.677Z,71.47
2019-05-20T04:00:43.804Z,69.06
2019-05-20T04:03:11.909Z,71.03
2019-05-20T04:05:39.815Z,69.32
2019-05-20T04:08:07.303Z,70.79
2019-05-20T04:10:34.555Z,69.57
2019-05-20T04:13:01.962Z,69.08
2019-05-20T04:15:29.429Z,68.07
2019-05-20T04:17:56.800Z,68.45
2019-05-20T04:20:24.155Z,68.37
2019-05-20T04:22:51.524Z,71.08
2019-05-20T04:25:18.901Z,69.62
2019-05-20T04:27:46.343Z,70.64
2019-05-20T04:30:18.691Z,72.55
2019-05-20T04:32:44.138Z,69.34
2019-05-20T04:35:21.974Z,73.78
2019-05-20T04:37:40.866Z,71.77
2019-05-20T04:40:09.133Z,71.33
2019-05-20T04:42:36.739Z,69.34
2019-05-20T04:45:06.413Z,69.06
2019-05-20T04:47:33.599Z,70.59
2019-05-20T04:50:00.838Z,68.34
2019-05-20T04:52:28.107Z,68.19
2019-05-20T04:54:55.399Z,70.76
2019-05-20T04:57:22.663Z,68.80
2019-05-20T04:59:50.009Z,71.71
2019-05-20T05:02:17.233Z,67.22
2019-05-20T05:04:44.478Z,69.89
2019-05-20T05:07:11.962Z,69.99
2019-05-20T05:09:39.345Z,70.77
2019-05-20T05:12:06.592Z,67.78
2019-05-20T05:14:34.054Z,68.17
2019-05-20T05:17:01.429Z,68.90
2019-05-20T05:19:29.101Z,66.45
2019-05-20T05:21:56.458Z,67.51
2019-05-20T05:24:23.908Z,65.55
2019-05-20T05:26:51.481Z,65.12
2019-05-20T05:29:18.992Z,64.22
2019-05-20T05:31:46.458Z,64.22
2019-05-20T05:34:13.954Z,64.69
2019-05-20T05:36:41.427Z,64.07
2019-05-20T05:39:08.850Z,64.54
2019-05-20T05:41:36.157Z,62.64
2019-05-20T05:44:03.695Z,62.92
2019-05-20T05:46:30.856Z,62.59
2019-05-20T05:48:58.103Z,61.53
2019-05-20T05:51:25.573Z,61.86
2019-05-20T05:53:52.873Z,61.25
2019-05-20T05:56:20.129Z,61.14
2019-05-20T05:58:50.788Z,60.72
2019-05-20T06:01:18.252Z,60.66
2019-05-20T06:03:45.771Z,60.74
2019-05-20T06:06:13.707Z,61.11
2019-05-20T06:08:41.098Z,60.77
2019-05-20T06:11:08.487Z,60.58
2019-05-20T06:13:35.888Z,59.85
2019-05-20T06:16:03.360Z,59.97
2019-05-20T06:18:30.530Z,59.79
2019-05-20T06:20:57.919Z,59.38
2019-05-20T06:23:25.330Z,58.80
2019-05-20T06:25:52.613Z,58.24
2019-05-20T06:28:20.057Z,57.58
2019-05-20T06:30:47.812Z,57.93
2019-05-20T06:33:15.173Z,58.09
2019-05-20T06:35:42.871Z,57.72
2019-05-20T06:38:32.924Z,58.28
2019-05-20T06:41:00.328Z,58.01
2019-05-20T06:43:28.063Z,57.95
2019-05-20T06:45:55.499Z,57.68
2019-05-20T06:48:22.904Z,57.83
2019-05-20T06:50:57.541Z,57.50
2019-05-20T06:53:24.964Z,57.46
2019-05-20T06:55:52.370Z,57.74
2019-05-20T06:58:19.653Z,57.88
2019-05-20T07:00:47.142Z,58.28
2019-05-20T07:03:14.523Z,57.86
2019-05-20T07:05:41.817Z,57.59
2019-05-20T07:08:09.323Z,57.48
2019-05-20T07:10:36.791Z,56.92
2019-05-20T07:13:04.415Z,57.20
2019-05-20T07:15:31.864Z,56.46
2019-05-20T07:17:59.495Z,55.73
2019-05-20T07:20:26.646Z,55.18
2019-05-20T07:22:56.238Z,55.01
2019-05-20T07:25:23.978Z,55.03
2019-05-20T07:27:51.820Z,54.18
2019-05-20T07:30:19.395Z,52.91
2019-05-20T07:32:46.566Z,53.48
2019-05-20T07:35:28.783Z,53.34
2019-05-20T07:37:43.340Z,53.72
2019-05-20T07:40:12.569Z,53.41
2019-05-20T07:42:40.047Z,53.15
2019-05-20T07:45:08.166Z,53.34
2019-05-20T07:47:35.771Z,51.65
2019-05-20T07:50:03.675Z,52.61
2019-05-20T07:52:31.255Z,52.99
2019-05-20T07:54:59.637Z,53.30
2019-05-20T07:57:33.405Z,53.30
2019-05-20T08:00:01.066Z,52.89
2019-05-20T08:02:29.242Z,51.49
2019-05-20T08:04:56.633Z,52.24
2019-05-20T08:07:27.857Z,50.80
2019-05-20T08:09:53.330Z,51.48
2019-05-20T08:12:20.821Z,49.36
2019-05-20T08:14:51.179Z,49.81
2019-05-20T08:17:19.774Z,48.59
2019-05-20T08:19:47.342Z,48.76
2019-05-20T08:22:14.838Z,46.86
2019-05-20T08:24:42.563Z,46.34
2019-05-20T08:27:10.286Z,46.50
2019-05-20T08:29:37.919Z,46.45
2019-05-20T08:32:08.189Z,44.90
2019-05-20T08:34:36.310Z,44.97
2019-05-20T08:37:04.451Z,44.09
2019-05-20T08:39:31.757Z,42.85
2019-05-20T08:42:00.389Z,43.42
2019-05-20T08:44:27.672Z,40.72
2019-05-20T08:46:55.016Z,43.35
2019-05-20T08:49:22.675Z,42.22
2019-05-20T08:51:50.104Z,42.82
2019-05-20T08:54:17.654Z,42.70
2019-05-20T08:56:44.852Z,41.49
2019-05-20T08:59:12.307Z,42.52
2019-05-20T09:01:39.774Z,42.28
2019-05-20T09:04:07.230Z,42.19
2019-05-20T09:06:34.585Z,41.31
2019-05-20T09:09:04.614Z,41.61
2019-05-20T09:11:32.027Z,41.39
2019-05-20T09:13:59.209Z,40.20
2019-05-20T09:16:26.706Z,41.62
2019-05-20T09:18:54.245Z,41.34
2019-05-20T09:21:21.656Z,40.92
2019-05-20T09:23:49.213Z,41.19
2019-05-20T09:26:16.705Z,41.06
2019-05-20T09:28:44.073Z,39.84
2019-05-20T09:31:12.377Z,40.77
2019-05-20T09:33:40.216Z,39.52
2019-05-20T09:36:07.658Z,40.35
2019-05-20T09:38:37.131Z,39.58
2019-05-20T09:41:04.498Z,40.51
2019-05-20T09:43:32.164Z,40.79
2019-05-20T09:46:07.840Z,39.85
2019-05-20T09:48:28.793Z,38.85
2019-05-20T09:50:56.159Z,40.19
2019-05-20T09:53:23.413Z,38.66
2019-05-20T09:55:50.752Z,38.20
2019-05-20T09:58:18.214Z,38.42
2019-05-20T10:00:48.373Z,37.89
2019-05-20T10:03:15.791Z,39.05
2019-05-20T10:05:43.954Z,39.80
2019-05-20T10:08:14.109Z,39.34
2019-05-20T10:10:44.257Z,39.24
2019-05-20T10:13:11.708Z,40.55
2019-05-20T10:15:39.464Z,40.69
2019-05-20T10:18:06.978Z,40.52
2019-05-20T10:20:34.449Z,40.66
2019-05-20T10:23:01.937Z,45.65
2019-05-20T10:25:29.484Z,46.27
2019-05-20T10:27:57.834Z,49.92
2019-05-20T10:30:27.694Z,54.37
2019-05-20T10:32:55.106Z,56.48
2019-05-20T10:35:22.707Z,58.26
2019-05-20T10:37:50.375Z,58.00
2019-05-20T10:40:18.277Z,60.20
2019-05-20T10:42:46.170Z,60.26
2019-05-20T10:45:13.813Z,59.48
2019-05-20T10:47:41.228Z,59.06
2019-05-20T10:50:08.925Z,61.32
2019-05-20T10:52:36.370Z,58.68
2019-05-20T10:55:04.653Z,59.22
2019-05-20T10:57:32.053Z,58.67
2019-05-20T11:00:01.282Z,61.33
2019-05-20T11:02:31.217Z,58.84
2019-05-20T11:05:00.564Z,59.26
2019-05-20T11:07:28.134Z,59.17
2019-05-20T11:09:55.549Z,59.12
2019-05-20T11:12:22.938Z,60.15
2019-05-20T11:14:50.216Z,58.73
2019-05-20T11:17:17.770Z,58.10
2019-05-20T11:19:45.236Z,58.18
2019-05-20T11:22:14.363Z,58.15
2019-05-20T11:24:41.897Z,57.12
2019-05-20T11:27:09.487Z,56.47
2019-05-20T11:29:36.877Z,56.63
2019-05-20T11:32:04.386Z,56.20
2019-05-20T11:34:31.698Z,55.37
2019-05-20T11:36:59.140Z,55.99
2019-05-20T11:39:33.119Z,55.14
2019-05-20T11:41:55.754Z,55.44
2019-05-20T11:44:23.182Z,54.51
2019-05-20T11:46:50.398Z,54.60
2019-05-20T11:49:17.905Z,53.44
2019-05-20T11:51:45.534Z,54.70
2019-05-20T11:54:13.031Z,52.95
2019-05-20T11:56:40.322Z,52.87
2019-05-20T11:59:07.757Z,53.11
2019-05-20T12:01:35.569Z,53.84
2019-05-20T12:04:05.514Z,51.55
2019-05-20T12:06:33.057Z,50.65
2019-05-20T12:09:00.253Z,50.68
2019-05-20T12:11:27.724Z,50.27
2019-05-20T12:13:55.228Z,50.02
2019-05-20T12:16:22.971Z,50.36
2019-05-20T12:18:53.376Z,51.71
2019-05-20T12:21:23.090Z,50.14
2019-05-20T12:23:50.283Z,49.56
2019-05-20T12:26:17.711Z,49.46
2019-05-20T12:28:45.339Z,48.67
2019-05-20T12:31:16.942Z,48.06
2019-05-20T12:33:44.295Z,47.72
2019-05-20T12:36:12.058Z,47.53
2019-05-20T12:38:39.372Z,47.07
2019-05-20T12:41:06.864Z,46.35
2019-05-20T12:43:34.073Z,46.65
2019-05-20T12:46:01.415Z,47.21
2019-05-20T12:48:28.777Z,47.23
2019-05-20T12:50:56.054Z,45.78
2019-05-20T12:53:23.311Z,45.84
2019-05-20T12:55:50.775Z,45.71
2019-05-20T12:58:18.273Z,45.62
2019-05-20T13:00:45.941Z,45.55
2019-05-20T13:03:13.169Z,46.42
2019-05-20T13:05:40.559Z,46.21
2019-05-20T13:08:07.884Z,46.21
2019-05-20T13:10:36.951Z,46.54
2019-05-20T13:13:07.472Z,46.39
2019-05-20T13:15:35.643Z,47.14
2019-05-20T13:18:03.247Z,47.21
2019-05-20T13:20:30.661Z,47.75
2019-05-20T13:22:58.367Z,47.57
2019-05-20T13:25:25.953Z,47.83
2019-05-20T13:27:53.116Z,47.83
2019-05-20T13:30:22.945Z,48.23
2019-05-20T13:32:50.331Z,49.21
2019-05-20T13:35:18.556Z,49.79
2019-05-20T13:37:46.364Z,50.79
2019-05-20T13:40:14.209Z,53.27
2019-05-20T13:42:41.483Z,53.52
2019-05-20T13:45:22.709Z,54.06
2019-05-20T13:47:50.399Z,54.00
2019-05-20T13:50:26.115Z,55.73
2019-05-20T13:52:53.376Z,56.21
2019-05-20T13:55:20.965Z,56.06
2019-05-20T13:57:48.254Z,55.15
2019-05-20T14:00:16.050Z,54.84
2019-05-20T14:02:44.156Z,54.34
2019-05-20T14:05:16.892Z,53.94
2019-05-20T14:07:44.500Z,54.32
2019-05-20T14:10:12.517Z,53.49
2019-05-20T14:12:39.900Z,53.85
2019-05-20T14:15:15.020Z,53.67
2019-05-20T14:17:45.972Z,53.81
2019-05-20T14:20:22.105Z,53.71
2019-05-20T14:22:59.372Z,53.75
2019-05-20T14:25:29.243Z,53.44
2019-05-20T14:27:56.468Z,53.04
2019-05-20T14:30:24.152Z,53.31
2019-05-20T14:32:54.514Z,53.24
2019-05-20T14:35:21.861Z,53.28
2019-05-20T14:37:49.966Z,53.17
2019-05-20T14:40:17.680Z,52.96
2019-05-20T14:42:45.257Z,53.57
2019-05-20T14:45:12.818Z,53.85
2019-05-20T14:47:41.589Z,53.43
2019-05-20T14:50:10.467Z,53.17
2019-05-20T14:52:39.336Z,53.65
2019-05-20T14:55:14.760Z,54.07
2019-05-20T14:57:43.048Z,54.00
2019-05-20T15:00:11.604Z,55.25
2019-05-20T15:02:38.773Z,56.19
2019-05-20T15:05:07.350Z,56.63
2019-05-20T15:07:34.532Z,56.29
2019-05-20T15:10:03.365Z,55.46
2019-05-20T15:12:31.273Z,57.21
2019-05-20T15:15:02.328Z,56.06
2019-05-20T15:17:29.861Z,57.07
2019-05-20T15:19:57.225Z,56.44
2019-05-20T15:22:24.712Z,56.41
2019-05-20T15:24:52.099Z,56.18
2019-05-20T15:27:19.903Z,56.55
2019-05-20T15:29:48.251Z,56.78
2019-05-20T15:32:15.590Z,57.33
2019-05-20T15:34:42.778Z,57.70
2019-05-20T15:37:09.968Z,58.14
2019-05-20T15:39:37.275Z,58.31
2019-05-20T15:42:05.004Z,59.51
2019-05-20T15:44:32.284Z,59.05
2019-05-20T15:46:59.844Z,59.23
2019-05-20T15:49:27.398Z,60.43
2019-05-20T15:51:54.645Z,60.87
2019-05-20T15:54:22.638Z,60.15
2019-05-20T15:56:51.116Z,64.16
2019-05-20T15:59:19.071Z,64.80
2019-05-20T16:01:48.776Z,64.11
2019-05-20T16:04:16.313Z,63.87
2019-05-20T16:06:43.820Z,63.50
2019-05-20T16:09:11.600Z,63.25
2019-05-20T16:11:50.129Z,62.74
2019-05-20T16:14:17.582Z,63.37
2019-05-20T16:16:44.934Z,64.43
2019-05-20T16:19:14.124Z,64.02
2019-05-20T16:21:41.416Z,65.63
2019-05-20T16:24:08.829Z,66.25
2019-05-20T16:26:36.413Z,66.44
2019-05-20T16:29:03.834Z,67.59
2019-05-20T16:31:31.232Z,68.26
2019-05-20T16:33:59.731Z,67.90
2019-05-20T16:36:28.281Z,66.60
2019-05-20T16:38:56.429Z,66.17
2019-05-20T16:41:32.803Z,67.22
2019-05-20T16:44:01.248Z,67.66
2019-05-20T16:46:28.600Z,66.72
2019-05-20T16:48:55.873Z,66.75
2019-05-20T16:51:23.669Z,69.40
2019-05-20T16:53:50.951Z,68.24
2019-05-20T16:56:18.329Z,68.23
2019-05-20T16:58:45.660Z,69.03
2019-05-20T17:01:14.906Z,67.05
2019-05-20T17:03:42.688Z,68.94
2019-05-20T17:06:10.385Z,69.22
2019-05-20T17:08:37.709Z,69.22
2019-05-20T17:11:05.214Z,67.98
2019-05-20T17:13:32.558Z,68.28
2019-05-20T17:16:00.057Z,68.90
2019-05-20T17:18:27.639Z,67.86
2019-05-20T17:20:54.943Z,71.32
2019-05-20T17:23:22.740Z,69.24
2019-05-20T17:25:50.923Z,69.59
2019-05-20T17:28:18.623Z,69.66
2019-05-20T17:30:46.674Z,70.05
2019-05-20T17:33:14.105Z,70.37
2019-05-20T17:35:41.586Z,70.24
2019-05-20T17:38:09.067Z,70.90
2019-05-20T17:40:36.578Z,70.57
2019-05-20T17:43:04.624Z,71.05
2019-05-20T17:45:32.142Z,71.82
2019-05-20T17:47:59.645Z,71.38
2019-05-20T17:50:27.110Z,71.80
2019-05-20T17:52:54.390Z,69.93
2019-05-20T17:55:22.019Z,70.88
2019-05-20T17:57:49.332Z,69.99
2019-05-20T18:00:20.429Z,68.77
2019-05-20T18:02:47.953Z,68.76
2019-05-20T18:05:15.853Z,68.82
2019-05-20T18:07:43.353Z,70.71
2019-05-20T18:10:11.441Z,70.37
2019-05-20T18:12:38.711Z,69.17
2019-05-20T18:15:07.229Z,70.01
2019-05-20T18:17:34.731Z,70.86
2019-05-20T18:20:03.279Z,70.43
2019-05-20T18:22:30.797Z,71.47
2019-05-20T18:24:58.111Z,70.18
2019-05-20T18:27:25.652Z,71.59
2019-05-20T18:29:53.177Z,72.00
2019-05-20T18:32:20.805Z,73.28
2019-05-20T18:34:48.303Z,71.51
2019-05-20T18:37:15.690Z,72.83
2019-05-20T18:39:43.100Z,73.22
2019-05-20T18:42:11.155Z,73.48
2019-05-20T18:44:38.618Z,74.89
2019-05-20T18:47:08.833Z,74.26
2019-05-20T18:49:41.132Z,72.58
2019-05-20T18:52:07.306Z,74.23
2019-05-20T18:54:34.686Z,74.25
2019-05-20T18:57:02.088Z,72.88
2019-05-20T18:59:29.381Z,75.34
2019-05-20T19:02:05.122Z,74.15
2019-05-20T19:04:26.088Z,72.55
2019-05-20T19:07:02.208Z,74.06
2019-05-20T19:09:29.592Z,73.90
2019-05-20T19:11:56.870Z,73.02
2019-05-20T19:14:24.303Z,72.10
2019-05-20T19:16:51.747Z,75.51
2019-05-20T19:19:19.196Z,76.59
2019-05-20T19:21:46.601Z,74.58
2019-05-20T19:24:14.048Z,75.94
2019-05-20T19:26:41.478Z,74.92
2019-05-20T19:29:09.100Z,76.18
2019-05-20T19:31:37.872Z,75.03
2019-05-20T19:34:05.401Z,73.68
2019-05-20T19:36:33.689Z,74.98
2019-05-20T19:39:01.130Z,74.76
2019-05-20T19:41:28.414Z,74.24
2019-05-20T19:43:58.744Z,74.99
2019-05-20T19:46:26.275Z,75.70
2019-05-20T19:48:53.444Z,77.88
2019-05-20T19:51:21.008Z,78.98
2019-05-20T19:53:48.251Z,76.51
2019-05-20T19:56:15.553Z,77.21
2019-05-20T19:58:42.807Z,77.59
2019-05-20T20:01:10.370Z,77.96
2019-05-20T20:03:37.650Z,77.81
2019-05-20T20:06:06.979Z,77.18
2019-05-20T20:08:34.161Z,78.41
2019-05-20T20:11:01.681Z,79.01
2019-05-20T20:13:34.189Z,78.73
2019-05-20T20:16:00.606Z,77.05
2019-05-20T20:18:27.951Z,77.00
2019-05-20T20:20:55.876Z,75.93
2019-05-20T20:23:23.169Z,75.96
2019-05-20T20:25:51.077Z,77.04
2019-05-20T20:28:18.494Z,78.89
2019-05-20T20:30:52.526Z,78.85
2019-05-20T20:33:19.862Z,78.69
2019-05-20T20:35:47.146Z,79.30
2019-05-20T20:38:14.550Z,78.32
2019-05-20T20:40:42.149Z,78.48
2019-05-20T20:43:10.077Z,77.60
2019-05-20T20:45:37.608Z,79.65
2019-05-20T20:48:06.584Z,77.45
2019-05-20T20:50:33.929Z,78.26
2019-05-20T20:53:01.384Z,76.94
2019-05-20T20:55:28.909Z,78.10
2019-05-20T20:57:56.243Z,76.86
2019-05-20T21:00:23.877Z,76.44
2019-05-20T21:02:53.545Z,76.36
2019-05-20T21:05:20.714Z,75.43
2019-05-20T21:07:51.540Z,77.36
2019-05-20T21:10:17.580Z,77.30
2019-05-20T21:12:45.089Z,76.64
2019-05-20T21:15:12.939Z,75.67
2019-05-20T21:17:40.116Z,74.73
2019-05-20T21:20:08.003Z,75.12
2019-05-20T21:22:35.277Z,75.11
2019-05-20T21:25:02.985Z,76.18
2019-05-20T21:27:30.372Z,75.36
2019-05-20T21:29:57.526Z,74.73
2019-05-20T21:32:25.257Z,75.38
2019-05-20T21:34:52.897Z,76.37
2019-05-20T21:37:20.200Z,77.42
2019-05-20T21:39:51.243Z,76.82
2019-05-20T21:42:19.153Z,76.10
2019-05-20T21:44:48.118Z,75.13
2019-05-20T21:47:16.133Z,77.19
2019-05-20T21:49:44.542Z,76.34
2019-05-20T21:52:17.461Z,75.64
2019-05-20T21:54:44.764Z,75.23
2019-05-20T21:57:12.468Z,75.33
2019-05-20T21:59:40.521Z,75.27
2019-05-20T22:02:08.808Z,76.94
2019-05-20T22:04:36.579Z,74.70
2019-05-20T22:07:04.221Z,76.25
2019-05-20T22:09:31.897Z,77.79
2019-05-20T22:12:00.363Z,75.29
2019-05-20T22:14:28.168Z,75.90
2019-05-20T22:16:57.957Z,74.99
2019-05-20T22:19:27.439Z,74.40
2019-05-20T22:22:13.805Z,75.25
2019-05-20T22:24:43.913Z,77.34
2019-05-20T22:27:11.269Z,76.80
2019-05-20T22:29:39.941Z,74.98
2019-05-20T22:32:08.907Z,75.43
2019-05-20T22:34:37.674Z,75.21
2019-05-20T22:37:07.012Z,76.84
2019-05-20T22:39:35.106Z,76.24
2019-05-20T22:42:09.807Z,75.30
2019-05-20T22:44:38.516Z,75.42
2019-05-20T22:47:06.635Z,75.58
2019-05-20T22:49:34.224Z,75.19
2019-05-20T22:52:02.049Z,75.94
2019-05-20T22:54:29.340Z,75.27
2019-05-20T22:56:56.916Z,76.70
2019-05-20T22:59:24.090Z,78.16
2019-05-20T23:01:51.549Z,76.76
2019-05-20T23:04:18.988Z,76.04
2019-05-20T23:06:46.562Z,78.10
2019-05-20T23:09:14.970Z,76.20
2019-05-20T23:11:42.492Z,75.46
2019-05-20T23:14:10.168Z,76.95
2019-05-20T23:16:37.423Z,78.98
2019-05-20T23:19:04.729Z,76.48
2019-05-20T23:21:31.997Z,75.98
2019-05-20T23:23:59.519Z,76.38
2019-05-20T23:26:27.382Z,74.55
2019-05-20T23:28:54.937Z,74.67
2019-05-20T23:31:22.336Z,77.68
2019-05-20T23:33:49.870Z,75.88
2019-05-20T23:36:17.446Z,76.12
2019-05-20T23:38:45.118Z,74.75
2019-05-20T23:41:13.046Z,78.58
2019-05-20T23:43:40.210Z,75.11
2019-05-20T23:46:07.928Z,75.39
2019-05-20T23:48:35.879Z,75.78
2019-05-20T23:51:03.341Z,77.38
2019-05-20T23:53:30.909Z,74.74
2019-05-20T23:55:58.155Z,75.69
2019-05-20T23:58:25.531Z,77.71
